Adamsville, Rhode Island
Current Conditions -  °F | °C
As of 4:53 PM on Wednesday 28 Jan 2015 (Local Time) from KUUU Reporting Station
Clear Clear  
Wind Chill: 12°   Ceiling: Unl
Heat Index: 23°   Visibility: 10mi
Dew Point:   Wind: 10mph
Humidity: 53%   Direction: 330°NNW
Pressure: 30.04"   Gusts: NA
Location:  41.55°N, 71.13°W
Report Text: KUUU 282153Z AUTO 33009KT 10SM CLR M05/M13 A3004 RMK AO2 SLP174 T10501133
Loading
Personal Weather Stations






























Interactive Weather Map New forecast layout! Learn more

10-Day Weather Forecast

Advertisements
Track Severe Weather on mobile